Lena, Wisconsin
Current Conditions -  °F | °C
As of 8:35 AM on Friday 28 Nov 2014 (Local Time) from KOCQ Reporting Station
Overcast Overcast  
Wind Chill:   Ceiling: 9500
Heat Index: 12°   Visibility: 10mi
Dew Point:   Wind: 5mph
Humidity: 77%   Direction: 230°SW
Pressure: 30.21"   Gusts: NA
Location:  44.95°N, 88.05°W
Report Text: KOCQ 281435Z AUTO 23004KT 10SM SCT060 SCT080 OVC095 M11/M14 A3021 RMK AO1 T11111144
Loading
Personal Weather Stations






























Interactive Weather Map New forecast layout! Learn more

10-Day Weather Forecast

Advertisements
Track Severe Weather on mobile